Time;durP1;ratioP1;P1;durP2;ratioP2;P2;SDS_P1;SDS_P2;PMS_P1;PMS_P2;Temp;Humidity;BMP_temperature;BMP_pressure;BME280_temperature;BME280_humidity;BME280_pressure;Samples;Min_cycle;Max_cycle;Signal;HPM_P1;HPM_P2
2023/10/14 00:01:15;;;;;;;7.63;3.80;;;22.50;1.00;;;;;;4975060;28;20761;-84
2023/10/14 00:03:43;;;;;;;4.50;3.80;;;22.60;1.00;;;;;;4975490;28;20404;-85
2023/10/14 00:06:13;;;;;;;5.97;3.95;;;22.50;1.00;;;;;;4974398;28;20392;-85
2023/10/14 00:08:59;;;;;;;5.45;4.03;;;21.40;1.00;;;;;;4973359;28;20466;-85
2023/10/14 00:11:35;;;;;;;4.60;4.20;;;21.20;1.00;;;;;;4956950;28;20443;-86
2023/10/14 00:14:10;;;;;;;5.53;4.43;;;21.50;1.00;;;;;;4994567;28;20388;-87
2023/10/14 00:16:41;;;;;;;6.72;4.90;;;21.80;1.00;;;;;;4975652;28;20411;-85
2023/10/14 00:19:09;;;;;;;6.55;5.18;;;21.20;1.00;;;;;;4988627;28;20459;-86
2023/10/14 00:21:35;;;;;;;5.55;4.60;;;21.20;1.00;;;;;;4987308;28;20394;-86
2023/10/14 00:24:03;;;;;;;7.70;5.05;;;21.10;1.00;;;;;;4964363;28;20404;-86
2023/10/14 00:26:30;;;;;;;5.07;4.55;;;21.30;1.00;;;;;;4962371;28;20403;-84
2023/10/14 00:31:44;;;;;;;6.50;4.57;;;21.40;1.00;;;;;;4993056;28;20516;-85
2023/10/14 00:34:10;;;;;;;4.85;4.32;;;21.80;1.00;;;;;;4974958;28;20401;-85
2023/10/14 00:36:36;;;;;;;5.78;5.07;;;21.00;1.00;;;;;;4974283;28;20887;-87
2023/10/14 00:39:16;;;;;;;6.37;5.00;;;21.00;1.00;;;;;;4989307;28;20445;-86
2023/10/14 00:41:50;;;;;;;5.95;4.70;;;23.30;1.00;;;;;;4958448;28;20446;-86
2023/10/14 00:44:17;;;;;;;5.85;4.60;;;21.00;1.00;;;;;;4979419;28;20473;-86
2023/10/14 00:46:52;;;;;;;6.35;5.00;;;21.30;1.00;;;;;;4977211;28;20387;-86
2023/10/14 00:49:22;;;;;;;6.43;4.60;;;21.80;1.00;;;;;;4973554;28;20416;-86
2023/10/14 00:51:51;;;;;;;5.53;4.80;;;21.40;1.00;;;;;;4981218;28;20416;-86
2023/10/14 00:57:10;;;;;;;6.40;4.93;;;23.40;1.00;;;;;;4982276;28;20765;-86
2023/10/14 00:59:37;;;;;;;6.20;4.90;;;22.70;1.00;;;;;;4961125;28;20376;-86
2023/10/14 01:02:05;;;;;;;7.60;4.70;;;21.60;1.00;;;;;;4975469;28;20489;-86
2023/10/14 01:04:34;;;;;;;6.88;4.50;;;21.60;1.00;;;;;;4960396;28;20475;-85
2023/10/14 01:07:12;;;;;;;6.75;4.50;;;21.30;1.00;;;;;;4982332;28;20395;-85
2023/10/14 01:15:20;;;;;;;5.25;4.75;;;22.20;1.00;;;;;;4953709;29;20394;-85
2023/10/14 01:17:47;;;;;;;5.77;4.43;;;21.50;1.00;;;;;;4955273;28;20393;-85
2023/10/14 01:22:47;;;;;;;5.75;4.97;;;21.30;1.00;;;;;;4975181;28;20434;-86
2023/10/14 01:25:14;;;;;;;5.10;4.70;;;21.70;1.00;;;;;;4975446;28;20841;-85
2023/10/14 01:27:49;;;;;;;5.38;4.88;;;21.60;1.00;;;;;;5005944;23;20463;-90
2023/10/14 01:30:19;;;;;;;6.37;4.60;;;21.20;1.00;;;;;;4976023;28;20426;-92
2023/10/14 01:35:40;;;;;;;5.93;5.05;;;21.40;1.00;;;;;;4975198;28;20396;-90
2023/10/14 01:38:11;;;;;;;5.10;4.63;;;21.40;1.00;;;;;;4962501;28;20744;-93
2023/10/14 01:40:49;;;;;;;5.75;4.78;;;21.10;1.00;;;;;;4963341;28;20404;-92
2023/10/14 01:43:23;;;;;;;6.10;4.50;;;22.40;1.00;;;;;;4957723;28;20432;-91
2023/10/14 01:48:21;;;;;;;8.57;4.97;;;21.30;1.00;;;;;;4974791;28;20483;-90
2023/10/14 01:50:54;;;;;;;5.22;4.72;;;21.20;1.00;;;;;;4957295;28;20416;-93
2023/10/14 01:53:42;;;;;;;5.30;4.80;;;23.50;1.00;;;;;;4957764;28;20389;-92
2023/10/14 01:56:08;;;;;;;5.82;4.60;;;21.50;1.00;;;;;;4962019;28;20455;-89
2023/10/14 01:58:45;;;;;;;6.60;5.40;;;20.70;1.00;;;;;;4978884;28;20765;-88
2023/10/14 02:03:54;;;;;;;6.60;5.53;;;21.00;1.00;;;;;;4994889;28;20389;-93
2023/10/14 02:06:25;;;;;;;5.90;5.30;;;22.90;1.00;;;;;;4967380;28;20498;-93
2023/10/14 02:08:51;;;;;;;7.82;5.25;;;23.20;1.00;;;;;;4963872;28;20395;-91
2023/10/14 02:11:20;;;;;;;5.57;4.88;;;21.20;1.00;;;;;;4963399;28;20424;-90
2023/10/14 02:13:55;;;;;;;6.10;5.50;;;20.90;1.00;;;;;;4958951;28;20406;-91
2023/10/14 02:16:24;;;;;;;6.68;5.43;;;20.80;1.00;;;;;;4959437;28;20880;-92
2023/10/14 02:21:41;;;;;;;6.50;5.30;;;21.30;1.00;;;;;;4976934;28;20407;-89
2023/10/14 02:24:10;;;;;;;7.07;5.30;;;20.20;1.00;;;;;;4976216;28;20385;-92
2023/10/14 02:26:39;;;;;;;8.15;6.15;;;21.50;1.00;;;;;;4957527;28;20430;-92
2023/10/14 02:29:10;;;;;;;8.68;5.50;;;19.70;1.00;;;;;;4964669;28;20482;-91
2023/10/14 02:31:46;;;;;;;7.50;5.70;;;20.20;1.00;;;;;;4979300;28;20414;-92
2023/10/14 02:34:31;;;;;;;7.35;5.65;;;22.90;1.00;;;;;;4993235;28;20470;-93
2023/10/14 02:37:07;;;;;;;6.10;5.50;;;19.60;1.00;;;;;;4988672;28;20397;-93
2023/10/14 02:39:33;;;;;;;8.50;6.15;;;20.30;1.00;;;;;;4947189;29;20417;-93
2023/10/14 02:44:44;;;;;;;6.45;5.45;;;21.30;1.00;;;;;;4980705;28;20408;-92
2023/10/14 02:47:19;;;;;;;6.50;5.90;;;20.10;1.00;;;;;;4979772;28;20396;-91
2023/10/14 02:50:04;;;;;;;6.57;5.70;;;19.70;1.00;;;;;;4965433;28;20400;-91
2023/10/14 02:52:49;;;;;;;8.10;6.10;;;20.30;1.00;;;;;;4963666;28;20412;-93
2023/10/14 02:55:25;;;;;;;7.80;5.80;;;20.00;1.00;;;;;;4963265;28;20388;-92
2023/10/14 02:58:06;;;;;;;6.60;6.00;;;20.60;1.00;;;;;;4961817;28;20408;-92
2023/10/14 03:00:41;;;;;;;6.55;5.95;;;22.90;1.00;;;;;;4965084;28;20471;-92
2023/10/14 03:03:13;;;;;;;6.57;5.88;;;20.70;1.00;;;;;;4961606;28;20392;-91
2023/10/14 03:08:57;;;;;;;6.30;5.70;;;20.30;1.00;;;;;;4942134;28;20388;-93
2023/10/14 03:11:31;;;;;;;10.02;5.90;;;22.10;1.00;;;;;;4958633;28;20784;-92
2023/10/14 03:14:02;;;;;;;7.47;5.40;;;20.50;1.00;;;;;;4959678;28;20384;-92
2023/10/14 03:16:28;;;;;;;7.70;5.57;;;21.00;1.00;;;;;;4959765;28;20403;-91
2023/10/14 03:18:59;;;;;;;7.50;5.93;;;20.40;1.00;;;;;;4959301;28;20392;-90
2023/10/14 03:24:29;;;;;;;9.00;6.22;;;20.20;1.00;;;;;;4960958;28;20880;-92
2023/10/14 03:27:15;;;;;;;8.50;5.90;;;21.30;1.00;;;;;;4957852;28;20428;-90
2023/10/14 03:29:55;;;;;;;6.60;6.00;;;19.70;1.00;;;;;;4956914;28;20404;-88
2023/10/14 03:32:32;;;;;;;9.45;6.20;;;20.70;1.00;;;;;;4958753;28;20439;-91
2023/10/14 03:35:27;;;;;;;10.90;5.50;;;20.30;1.00;;;;;;4958744;28;20415;-91
2023/10/14 03:37:53;;;;;;;8.43;6.00;;;20.30;1.00;;;;;;4959755;28;21124;-89
2023/10/14 03:40:35;;;;;;;6.88;5.90;;;20.20;1.00;;;;;;4959815;28;20901;-91
2023/10/14 03:43:14;;;;;;;5.97;5.38;;;22.30;1.00;;;;;;4960535;28;20423;-91
2023/10/14 03:48:56;;;;;;;8.02;5.95;;;20.20;1.00;;;;;;4974042;28;20398;-93
2023/10/14 03:55:27;;;;;;;7.32;6.63;;;20.00;1.00;;;;;;4895221;29;20399;-93
2023/10/14 03:58:03;;;;;;;7.57;6.50;;;18.90;1.00;;;;;;4904330;28;20897;-90
2023/10/14 04:06:52;;;;;;;8.60;6.30;;;20.40;1.00;;;;;;4969104;28;20539;-91
2023/10/14 04:10:04;;;;;;;7.68;5.65;;;19.80;1.00;;;;;;4975085;28;20425;-90
2023/10/14 04:12:40;;;;;;;7.57;6.07;;;19.70;1.00;;;;;;4977073;28;20416;-90
2023/10/14 04:18:46;;;;;;;10.07;6.82;;;20.90;1.00;;;;;;4967394;28;20770;-90
2023/10/14 04:21:26;;;;;;;6.18;5.40;;;21.10;1.00;;;;;;4941149;29;20390;-90
2023/10/14 04:27:16;;;;;;;7.80;5.80;;;19.70;1.00;;;;;;4958217;29;20433;-91
2023/10/14 04:30:27;;;;;;;11.30;5.60;;;19.80;1.00;;;;;;4958238;29;20409;-90
2023/10/14 06:07:36;;;;;;;7.00;5.20;;;19.40;1.00;;;;;;5006380;28;20618;-94
2023/10/14 06:10:58;;;;;;;;;;;;;;;;;;;;;
2023/10/14 06:45:05;;;;;;;8.97;5.30;;;19.50;1.00;;;;;;4866306;29;20898;-91
2023/10/14 06:47:30;;;;;;;11.18;5.55;;;18.40;1.00;;;;;;4939878;28;20470;-85
2023/10/14 06:50:23;;;;;;;9.93;5.63;;;19.00;1.00;;;;;;4972608;28;20396;-86
2023/10/14 06:53:11;;;;;;;9.23;5.60;;;20.70;1.00;;;;;;4967356;28;21920;-86
2023/10/14 06:55:37;;;;;;;8.85;6.18;;;20.00;1.00;;;;;;4943322;29;20397;-86
2023/10/14 06:58:18;;;;;;;9.27;5.53;;;21.10;1.00;;;;;;4954103;28;20404;-85
2023/10/14 07:01:03;;;;;;;8.57;6.38;;;19.90;1.00;;;;;;4957369;28;20400;-86
2023/10/14 07:03:28;;;;;;;10.50;6.30;;;19.40;1.00;;;;;;4957550;28;20388;-86
2023/10/14 07:06:09;;;;;;;;;;;;;;;;;;;;;
2023/10/14 07:08:48;;;;;;;;;;;;;;;;;;;;;
2023/10/14 07:11:26;;;;;;;8.48;5.45;;;21.90;1.00;;;;;;4954920;28;20410;-85
2023/10/14 07:14:00;;;;;;;9.95;6.32;;;19.40;1.00;;;;;;4952508;28;20491;-86
2023/10/14 07:16:46;;;;;;;8.50;5.70;;;21.80;1.00;;;;;;4957835;28;20459;-88
2023/10/14 07:19:18;;;;;;;8.88;5.70;;;19.30;1.00;;;;;;4954364;28;20831;-88
2023/10/14 07:21:47;;;;;;;8.18;5.25;;;20.80;1.00;;;;;;4940342;28;20445;-87
2023/10/14 07:24:21;;;;;;;6.27;4.90;;;21.50;1.00;;;;;;4984644;28;20390;-87
2023/10/14 07:26:47;;;;;;;8.20;5.30;;;20.20;1.00;;;;;;4983995;28;20416;-87
2023/10/14 07:33:15;;;;;;;8.40;5.03;;;21.30;1.00;;;;;;4983454;28;20431;-89
2023/10/14 07:35:41;;;;;;;7.60;5.22;;;22.00;1.00;;;;;;4950020;23;20440;-83
2023/10/14 07:38:08;;;;;;;9.43;4.60;;;19.50;1.00;;;;;;4968034;28;20408;-84
2023/10/14 07:40:34;;;;;;;11.07;6.23;;;19.50;1.00;;;;;;4951314;28;20404;-81
2023/10/14 07:43:05;;;;;;;8.37;5.70;;;19.40;1.00;;;;;;4971599;28;20911;-83
2023/10/14 07:45:35;;;;;;;6.60;5.20;;;19.50;1.00;;;;;;4961231;28;20407;-83
2023/10/14 07:48:09;;;;;;;6.85;5.30;;;20.10;1.00;;;;;;4976646;28;20398;-85
2023/10/14 07:50:38;;;;;;;7.00;5.10;;;19.70;1.00;;;;;;4980816;28;20484;-82
2023/10/14 07:53:08;;;;;;;8.20;5.38;;;19.40;1.00;;;;;;4980166;28;20420;-84
2023/10/14 07:55:42;;;;;;;9.32;5.53;;;19.40;1.00;;;;;;4961684;28;22765;-85
2023/10/14 07:58:08;;;;;;;7.22;4.68;;;19.40;1.00;;;;;;4966602;28;20427;-83
2023/10/14 08:00:52;;;;;;;9.63;4.47;;;20.00;1.00;;;;;;4980776;28;20490;-85
2023/10/14 08:03:26;;;;;;;4.60;3.70;;;19.90;1.00;;;;;;4974674;28;20389;-83
2023/10/14 08:05:54;;;;;;;4.50;3.35;;;19.60;1.00;;;;;;4955550;28;20410;-85
2023/10/14 08:08:21;;;;;;;6.00;3.80;;;20.10;1.00;;;;;;4957163;28;20772;-84
2023/10/14 08:10:49;;;;;;;7.53;4.47;;;18.40;1.00;;;;;;4968198;28;20405;-81
2023/10/14 08:13:22;;;;;;;5.00;4.20;;;18.00;1.00;;;;;;4945926;29;20480;-81
2023/10/14 08:15:55;;;;;;;5.80;4.60;;;17.30;1.00;;;;;;4965601;28;20415;-83
2023/10/14 08:18:25;;;;;;;7.10;4.93;;;17.80;1.00;;;;;;4982070;28;20475;-86
2023/10/14 08:20:53;;;;;;;6.63;4.97;;;18.40;1.00;;;;;;4960985;28;20468;-85
2023/10/14 08:23:20;;;;;;;7.57;5.03;;;17.00;1.00;;;;;;4959844;28;20907;-90
2023/10/14 08:25:47;;;;;;;5.90;5.30;;;17.20;1.00;;;;;;4960691;28;20812;-90
2023/10/14 08:28:12;;;;;;;8.98;5.78;;;19.20;1.00;;;;;;4959783;28;20388;-85
2023/10/14 08:30:45;;;;;;;9.70;5.20;;;18.00;1.00;;;;;;4960096;28;20491;-86
2023/10/14 08:33:14;;;;;;;10.30;5.63;;;16.80;1.00;;;;;;4976056;28;20734;-85
2023/10/14 08:35:42;;;;;;;10.20;5.37;;;19.10;1.00;;;;;;4977343;28;20414;-86
2023/10/14 08:38:14;;;;;;;7.70;5.90;;;18.00;1.00;;;;;;4964913;28;20396;-85
2023/10/14 08:40:40;;;;;;;11.10;6.03;;;17.10;1.00;;;;;;4986360;28;20778;-81
2023/10/14 08:43:10;;;;;;;11.48;6.72;;;16.90;1.00;;;;;;4976571;28;20397;-85
2023/10/14 08:45:39;;;;;;;8.60;6.00;;;16.70;1.00;;;;;;4960226;28;20446;-85
2023/10/14 08:48:06;;;;;;;9.00;6.40;;;16.90;1.00;;;;;;4977748;28;20761;-84
2023/10/14 08:50:33;;;;;;;7.20;6.50;;;17.00;1.00;;;;;;4964743;28;20431;-84
2023/10/14 08:53:03;;;;;;;7.27;6.37;;;16.70;1.00;;;;;;4959782;28;20761;-84
2023/10/14 08:55:32;;;;;;;10.88;6.70;;;16.50;1.00;;;;;;4960522;28;20444;-87
2023/10/14 08:58:01;;;;;;;6.82;6.05;;;17.60;1.00;;;;;;4977160;28;20388;-86
2023/10/14 09:00:29;;;;;;;8.52;5.88;;;16.60;1.00;;;;;;4980684;28;20446;-84
2023/10/14 09:02:55;;;;;;;6.15;5.55;;;16.50;1.00;;;;;;4986153;28;20420;-83
2023/10/14 09:05:23;;;;;;;6.25;5.55;;;16.60;1.00;;;;;;5000098;28;20392;-87
2023/10/14 09:07:49;;;;;;;8.75;6.00;;;16.30;1.00;;;;;;4983415;28;20411;-85
2023/10/14 09:10:20;;;;;;;7.87;5.90;;;16.30;1.00;;;;;;4999855;28;20420;-85
2023/10/14 09:12:59;;;;;;;8.10;5.78;;;16.70;1.00;;;;;;4985877;28;20416;-85
2023/10/14 09:15:29;;;;;;;6.35;5.38;;;16.10;1.00;;;;;;4961371;28;20408;-84
2023/10/14 09:17:56;;;;;;;8.50;5.43;;;16.60;1.00;;;;;;4979581;28;20987;-84
2023/10/14 09:20:32;;;;;;;8.60;6.15;;;16.40;1.00;;;;;;4978126;28;20395;-86
2023/10/14 09:23:15;;;;;;;6.97;5.15;;;16.90;1.00;;;;;;4978186;28;20397;-85
2023/10/14 09:25:45;;;;;;;6.73;5.53;;;16.60;1.00;;;;;;4960802;28;20396;-86
2023/10/14 09:28:12;;;;;;;8.10;4.95;;;16.80;1.00;;;;;;4978405;28;20867;-85
2023/10/14 09:30:44;;;;;;;7.80;5.57;;;16.40;1.00;;;;;;4977289;28;20396;-87
2023/10/14 09:33:15;;;;;;;6.97;5.72;;;16.20;1.00;;;;;;4975275;28;20760;-87
2023/10/14 09:35:44;;;;;;;8.32;6.00;;;16.00;1.00;;;;;;4960775;28;20426;-86
2023/10/14 09:38:12;;;;;;;9.63;6.28;;;17.30;1.00;;;;;;4959340;28;20907;-87
2023/10/14 09:40:38;;;;;;;12.32;7.15;;;16.00;1.00;;;;;;4960688;28;20396;-86
2023/10/14 09:43:06;;;;;;;10.43;6.38;;;17.90;1.00;;;;;;4960021;28;20403;-86
2023/10/14 09:45:33;;;;;;;7.50;5.75;;;16.10;1.00;;;;;;4987540;28;20443;-87
2023/10/14 09:48:02;;;;;;;8.53;5.90;;;17.60;1.00;;;;;;4987774;28;20499;-85
2023/10/14 09:50:29;;;;;;;10.38;6.28;;;18.40;1.00;;;;;;4960349;28;20498;-86
2023/10/14 09:52:56;;;;;;;7.18;5.80;;;15.90;1.00;;;;;;4959075;28;20435;-86
2023/10/14 09:55:22;;;;;;;11.87;6.60;;;16.00;1.00;;;;;;4976087;28;21045;-85
2023/10/14 09:57:49;;;;;;;7.20;5.60;;;16.50;1.00;;;;;;4976338;28;20431;-87
2023/10/14 10:00:18;;;;;;;6.93;6.03;;;17.20;1.00;;;;;;4959389;28;20452;-87
2023/10/14 10:02:48;;;;;;;7.73;5.73;;;16.70;1.00;;;;;;4957773;28;20395;-85
2023/10/14 10:05:19;;;;;;;9.52;5.90;;;18.70;1.00;;;;;;4975594;28;20399;-84
2023/10/14 10:08:20;;;;;;;6.00;4.90;;;16.70;1.00;;;;;;4957597;28;20455;-85
2023/10/14 10:10:47;;;;;;;7.43;5.28;;;17.10;1.00;;;;;;4957943;28;20396;-86
2023/10/14 10:13:14;;;;;;;6.75;4.80;;;16.60;1.00;;;;;;4956948;28;20483;-85
2023/10/14 10:15:40;;;;;;;7.47;5.15;;;17.20;1.00;;;;;;4958049;28;20396;-83
2023/10/14 10:18:12;;;;;;;5.78;4.15;;;18.80;1.00;;;;;;4957568;28;20404;-85
2023/10/14 10:20:51;;;;;;;6.80;4.30;;;17.80;1.00;;;;;;4958061;28;20766;-85
2023/10/14 10:23:17;;;;;;;7.80;4.30;;;18.20;1.00;;;;;;4976108;28;21038;-84
2023/10/14 10:25:47;;;;;;;6.33;4.30;;;17.70;1.00;;;;;;4974759;28;20447;-85
2023/10/14 10:28:28;;;;;;;4.97;3.72;;;18.00;1.00;;;;;;4958429;28;20424;-84
2023/10/14 10:31:03;;;;;;;6.47;4.10;;;18.00;1.00;;;;;;4960397;28;20502;-84
2023/10/14 10:33:57;;;;;;;8.52;3.90;;;19.20;1.00;;;;;;4977913;28;20388;-84
2023/10/14 10:36:33;;;;;;;5.75;4.25;;;18.10;1.00;;;;;;4958025;28;20408;-84
2023/10/14 10:39:16;;;;;;;5.93;3.58;;;19.00;1.00;;;;;;4974670;28;20395;-85
2023/10/14 10:41:42;;;;;;;6.80;3.80;;;18.50;1.00;;;;;;4958223;28;20396;-84
2023/10/14 10:44:11;;;;;;;7.25;3.75;;;18.00;1.00;;;;;;4958531;28;20388;-85
2023/10/14 10:46:48;;;;;;;5.13;3.70;;;18.40;1.00;;;;;;4974945;28;20411;-84
2023/10/14 10:49:16;;;;;;;6.60;3.50;;;19.90;1.00;;;;;;4958021;28;20396;-86
2023/10/14 10:51:50;;;;;;;8.82;3.70;;;19.60;1.00;;;;;;4978678;28;20412;-85
2023/10/14 10:54:16;;;;;;;6.37;3.60;;;18.60;1.00;;;;;;4975609;28;20431;-85
2023/10/14 10:56:43;;;;;;;6.63;3.53;;;18.30;1.00;;;;;;4957723;28;20779;-84
2023/10/14 10:59:09;;;;;;;4.40;2.83;;;19.00;1.00;;;;;;4977245;28;20768;-84
2023/10/14 11:01:34;;;;;;;6.00;3.63;;;18.10;1.00;;;;;;4975456;28;20392;-86
2023/10/14 11:04:08;;;;;;;4.50;3.30;;;18.50;1.00;;;;;;4959977;28;20392;-85
2023/10/14 11:06:34;;;;;;;7.00;3.60;;;19.60;1.00;;;;;;4956797;28;20411;-88
2023/10/14 11:09:00;;;;;;;5.20;3.30;;;20.20;1.00;;;;;;4956213;28;20403;-87
2023/10/14 11:11:33;;;;;;;3.20;2.42;;;19.30;1.00;;;;;;4955949;28;20899;-85
2023/10/14 11:14:02;;;;;;;2.00;1.02;;;18.20;1.00;;;;;;4956445;28;20482;-87
2023/10/14 11:16:29;;;;;;;2.97;1.17;;;16.60;1.00;;;;;;4977825;28;20398;-89
2023/10/14 11:18:56;;;;;;;1.40;0.50;;;15.10;1.00;;;;;;4961026;28;20416;-89
2023/10/14 11:21:36;;;;;;;0.80;0.50;;;14.60;1.00;;;;;;4958500;28;20463;-89
2023/10/14 11:24:08;;;;;;;0.80;0.50;;;15.20;8.70;;;;;;4959565;28;20392;-88
2023/10/14 11:26:36;;;;;;;0.98;0.60;;;14.90;6.50;;;;;;4976380;28;20388;-91
2023/10/14 11:29:08;;;;;;;0.70;0.60;;;16.20;50.80;;;;;;4975643;28;20395;-88
2023/10/14 11:31:34;;;;;;;1.65;0.60;;;16.60;35.80;;;;;;4980402;28;20402;-88
2023/10/14 11:34:01;;;;;;;0.80;0.60;;;16.40;61.00;;;;;;4962821;28;20412;-88
2023/10/14 11:36:27;;;;;;;0.60;0.52;;;15.70;89.10;;;;;;4974336;28;20490;-91
2023/10/14 11:38:58;;;;;;;1.67;0.50;;;13.70;99.90;;;;;;4974218;28;20392;-88
2023/10/14 11:41:25;;;;;;;1.30;0.50;;;13.60;99.90;;;;;;4957232;28;20478;-89
2023/10/14 11:43:51;;;;;;;0.98;0.43;;;15.50;99.90;;;;;;4956148;28;20400;-90
2023/10/14 11:46:17;;;;;;;3.13;0.70;;;13.10;46.20;;;;;;4964566;28;20462;-90
2023/10/14 11:48:47;;;;;;;1.20;0.50;;;16.80;99.90;;;;;;4984808;28;20418;-90
2023/10/14 11:51:19;;;;;;;0.70;0.50;;;15.90;86.30;;;;;;4964943;28;20423;-88
2023/10/14 11:53:50;;;;;;;0.70;0.50;;;13.40;99.90;;;;;;4952277;28;20421;-85
2023/10/14 11:56:16;;;;;;;1.35;0.50;;;12.80;99.90;;;;;;4963493;28;20386;-84
2023/10/14 11:58:42;;;;;;;0.50;0.40;;;13.10;99.90;;;;;;4967825;28;20773;-84
2023/10/14 12:01:12;;;;;;;0.50;0.40;;;12.90;99.90;;;;;;4969589;28;20384;-85
2023/10/14 12:03:40;;;;;;;0.80;0.50;;;13.30;99.90;;;;;;4948721;28;20886;-83
2023/10/14 12:06:07;;;;;;;0.50;0.30;;;14.70;99.90;;;;;;4948686;28;20396;-85
2023/10/14 12:08:36;;;;;;;1.40;0.40;;;15.10;99.90;;;;;;4949077;28;20401;-86
2023/10/14 12:11:04;;;;;;;0.60;0.50;;;13.40;99.90;;;;;;4976263;28;20390;-84
2023/10/14 12:13:30;;;;;;;0.80;0.60;;;12.90;99.90;;;;;;4967890;28;20426;-86
2023/10/14 12:15:56;;;;;;;0.50;0.50;;;12.70;96.90;;;;;;4958118;28;20397;-85
2023/10/14 12:18:22;;;;;;;0.60;0.40;;;12.90;99.90;;;;;;4953434;28;20392;-82
2023/10/14 12:20:48;;;;;;;0.65;0.50;;;13.60;99.90;;;;;;4971691;28;20394;-83
2023/10/14 12:23:14;;;;;;;1.20;0.43;;;13.10;99.90;;;;;;4974154;28;20434;-83
2023/10/14 12:25:40;;;;;;;0.73;0.43;;;13.00;99.90;;;;;;4969036;28;20448;-80
2023/10/14 12:28:06;;;;;;;0.80;0.50;;;13.10;99.90;;;;;;4968896;28;20742;-80
2023/10/14 12:30:42;;;;;;;1.60;0.70;;;13.20;99.90;;;;;;4968511;28;20430;-81
2023/10/14 12:33:18;;;;;;;0.60;0.60;;;13.20;99.90;;;;;;4955704;28;20419;-80
2023/10/14 12:35:44;;;;;;;0.70;0.50;;;13.20;99.90;;;;;;4962844;28;20443;-80
2023/10/14 12:38:15;;;;;;;0.70;0.50;;;13.60;99.90;;;;;;4978539;28;20483;-80
2023/10/14 12:40:45;;;;;;;1.08;0.43;;;13.20;99.90;;;;;;4977925;28;20892;-81
2023/10/14 12:43:12;;;;;;;1.00;0.50;;;13.50;99.90;;;;;;4941444;29;20928;-81
2023/10/14 12:45:38;;;;;;;1.40;0.50;;;13.40;99.90;;;;;;4973858;28;20412;-81
2023/10/14 12:48:10;;;;;;;1.10;0.70;;;13.70;99.90;;;;;;4972488;28;20388;-81
2023/10/14 12:50:40;;;;;;;1.02;0.75;;;13.60;99.90;;;;;;4985812;28;20392;-81
2023/10/14 12:53:08;;;;;;;0.90;0.70;;;13.40;99.90;;;;;;4985467;28;20416;-81
2023/10/14 12:55:41;;;;;;;0.50;0.40;;;13.50;99.90;;;;;;4980718;28;20399;-81
2023/10/14 12:58:07;;;;;;;1.33;0.50;;;13.40;99.90;;;;;;4978721;28;20884;-81
2023/10/14 13:00:35;;;;;;;0.52;0.40;;;13.20;25.50;;;;;;4977995;28;20397;-81
2023/10/14 13:03:02;;;;;;;0.45;0.30;;;13.20;99.90;;;;;;4983406;28;20915;-80
2023/10/14 13:05:28;;;;;;;0.80;0.60;;;13.10;99.90;;;;;;4986325;28;20447;-79
2023/10/14 13:07:55;;;;;;;1.00;0.60;;;13.20;94.70;;;;;;4983427;28;20424;-82
2023/10/14 13:10:22;;;;;;;0.60;0.50;;;13.30;99.60;;;;;;4976409;28;20412;-80
2023/10/14 13:12:50;;;;;;;0.40;0.30;;;13.00;99.90;;;;;;4984720;28;20415;-81
2023/10/14 13:15:30;;;;;;;0.50;0.50;;;13.10;60.20;;;;;;4965666;28;20408;-79
2023/10/14 13:17:56;;;;;;;1.90;0.60;;;13.30;75.70;;;;;;4951886;28;20412;-80
2023/10/14 13:20:26;;;;;;;0.90;0.57;;;13.10;84.70;;;;;;4977039;28;20899;-79
2023/10/14 13:22:59;;;;;;;1.30;0.60;;;13.00;49.90;;;;;;4971375;28;20420;-80
2023/10/14 13:25:25;;;;;;;0.90;0.60;;;13.40;99.90;;;;;;4957676;28;20412;-80
2023/10/14 13:27:52;;;;;;;0.90;0.60;;;13.10;99.90;;;;;;4975076;28;20412;-79
2023/10/14 13:30:24;;;;;;;0.70;0.50;;;13.60;99.90;;;;;;4975982;28;20423;-80
2023/10/14 13:32:54;;;;;;;0.80;0.60;;;13.60;99.90;;;;;;4976760;28;20416;-80
2023/10/14 13:35:19;;;;;;;1.45;0.52;;;12.90;29.40;;;;;;5002072;23;21606;-87
2023/10/14 13:37:45;;;;;;;0.80;0.60;;;12.80;33.20;;;;;;5010524;28;20416;-86
2023/10/14 13:40:12;;;;;;;0.70;0.50;;;12.90;1.80;;;;;;4988408;28;20428;-86
2023/10/14 13:42:38;;;;;;;0.75;0.70;;;13.20;1.70;;;;;;4996363;28;20418;-85
2023/10/14 13:47:41;;;;;;;1.10;0.70;;;13.00;1.00;;;;;;4995552;23;20455;-85
2023/10/14 13:53:09;;;;;;;1.05;0.80;;;12.90;1.00;;;;;;4936949;28;20435;-86
2023/10/14 13:55:38;;;;;;;1.50;0.90;;;12.60;1.00;;;;;;4977596;28;20412;-87
2023/10/14 13:58:06;;;;;;;1.20;1.10;;;12.70;1.00;;;;;;4937823;28;20430;-86
2023/10/14 14:00:44;;;;;;;1.50;1.20;;;15.80;1.00;;;;;;4949939;28;20450;-85
2023/10/14 14:03:14;;;;;;;1.05;0.95;;;12.10;1.00;;;;;;4945642;29;20441;-86
2023/10/14 14:05:52;;;;;;;1.67;0.93;;;12.80;1.00;;;;;;4946364;28;20803;-87
2023/10/14 14:08:26;;;;;;;1.20;1.00;;;11.60;3.00;;;;;;4938847;29;20862;-85
2023/10/14 14:10:58;;;;;;;1.50;1.27;;;13.10;1.00;;;;;;4963202;28;20673;-86
2023/10/14 14:13:24;;;;;;;1.40;1.30;;;12.30;1.00;;;;;;4962463;28;20494;-85
2023/10/14 14:15:52;;;;;;;1.80;1.20;;;12.60;1.00;;;;;;4968621;28;20424;-85
2023/10/14 14:18:22;;;;;;;1.20;1.10;;;12.50;1.00;;;;;;4965470;28;20390;-86
2023/10/14 14:20:48;;;;;;;1.60;1.40;;;12.40;1.00;;;;;;4942808;28;20409;-86
2023/10/14 14:23:16;;;;;;;2.47;1.55;;;12.20;2.20;;;;;;4963050;28;20988;-87
2023/10/14 14:25:43;;;;;;;2.78;1.80;;;12.20;1.00;;;;;;4942551;29;20418;-85
2023/10/14 14:28:11;;;;;;;2.00;1.20;;;12.10;1.00;;;;;;4972278;28;20444;-85
2023/10/14 14:30:40;;;;;;;1.67;1.30;;;12.30;1.00;;;;;;4963290;28;20496;-85
2023/10/14 14:33:07;;;;;;;2.78;1.20;;;13.60;1.00;;;;;;4977997;28;20433;-85
2023/10/14 14:35:36;;;;;;;2.20;1.40;;;12.50;1.00;;;;;;4985998;28;20496;-85
2023/10/14 14:38:02;;;;;;;2.00;1.40;;;12.50;1.00;;;;;;4964906;28;20403;-86
2023/10/14 14:40:30;;;;;;;2.90;1.80;;;12.40;1.00;;;;;;4956760;28;20504;-87
2023/10/14 14:43:16;;;;;;;1.90;1.20;;;12.20;1.00;;;;;;4957457;28;20422;-85
2023/10/14 14:45:44;;;;;;;2.17;1.50;;;12.30;1.00;;;;;;4948282;28;20413;-86
2023/10/14 14:48:11;;;;;;;3.05;1.52;;;12.40;1.00;;;;;;4941381;28;20421;-85
2023/10/14 14:50:37;;;;;;;2.00;1.77;;;12.40;1.00;;;;;;4944819;29;20410;-85
2023/10/14 14:53:06;;;;;;;3.22;1.90;;;12.10;1.00;;;;;;4954081;28;20414;-84
2023/10/14 14:55:41;;;;;;;2.10;1.90;;;12.70;1.00;;;;;;4959489;28;20399;-83
2023/10/14 14:58:06;;;;;;;4.75;3.00;;;12.20;1.00;;;;;;4965970;28;20396;-84
2023/10/14 15:00:32;;;;;;;5.87;2.90;;;12.00;1.00;;;;;;4959283;29;20437;-85
2023/10/14 15:06:00;;;;;;;4.65;3.10;;;13.60;1.20;;;;;;4968706;28;20398;-85
2023/10/14 15:08:28;;;;;;;3.22;2.80;;;16.50;51.30;;;;;;4948264;29;20417;-85
2023/10/14 15:11:26;;;;;;;4.85;2.78;;;12.70;15.00;;;;;;4958460;28;20425;-85
2023/10/14 15:13:54;;;;;;;2.53;2.33;;;13.80;54.30;;;;;;4961156;28;20418;-85
2023/10/14 15:16:21;;;;;;;3.15;2.28;;;12.80;58.80;;;;;;5114911;23;20436;-84
2023/10/14 15:21:55;;;;;;;3.67;2.47;;;13.70;1.00;;;;;;4975985;28;20420;-84
2023/10/14 15:24:24;;;;;;;4.38;2.60;;;13.00;1.00;;;;;;4953834;28;20421;-86
2023/10/14 15:26:52;;;;;;;2.57;2.30;;;12.70;1.00;;;;;;4943791;28;20419;-85
2023/10/14 15:29:20;;;;;;;2.63;2.20;;;16.90;1.00;;;;;;4939664;29;20418;-85
2023/10/14 15:31:45;;;;;;;5.55;3.65;;;12.90;1.00;;;;;;4952841;29;20424;-85
2023/10/14 15:34:12;;;;;;;3.13;2.80;;;12.40;1.00;;;;;;4930940;29;20406;-85
2023/10/14 15:36:37;;;;;;;4.28;3.00;;;12.30;1.00;;;;;;4945563;28;20478;-85
2023/10/14 15:39:15;;;;;;;5.97;3.13;;;12.30;1.00;;;;;;4954597;28;20437;-85
2023/10/14 15:41:43;;;;;;;2.72;2.50;;;13.90;1.00;;;;;;4956621;28;20453;-86
2023/10/14 15:44:09;;;;;;;4.25;3.00;;;12.90;1.00;;;;;;4952233;29;20935;-86
2023/10/14 15:46:34;;;;;;;3.85;2.70;;;13.50;1.00;;;;;;4947043;29;20428;-86
2023/10/14 15:49:03;;;;;;;4.30;2.40;;;12.80;1.00;;;;;;4944425;28;20410;-85
2023/10/14 15:51:29;;;;;;;3.67;2.50;;;12.70;1.00;;;;;;4961264;28;20882;-85
2023/10/14 15:54:00;;;;;;;4.38;2.80;;;12.70;1.00;;;;;;4939076;28;20422;-84
2023/10/14 15:56:26;;;;;;;3.67;2.70;;;12.60;1.00;;;;;;4935138;29;20430;-85
2023/10/14 15:58:51;;;;;;;5.70;4.57;;;12.60;1.00;;;;;;4943826;28;20867;-85
2023/10/14 16:01:19;;;;;;;7.95;5.53;;;12.50;1.00;;;;;;4954618;28;20926;-86
2023/10/14 16:03:45;;;;;;;7.65;4.70;;;12.80;1.00;;;;;;4938982;28;20516;-84
2023/10/14 16:06:11;;;;;;;4.53;2.92;;;12.50;6.20;;;;;;4955590;28;20403;-84
2023/10/14 16:08:37;;;;;;;4.55;2.80;;;12.50;1.00;;;;;;4948216;29;20388;-83
2023/10/14 16:11:02;;;;;;;2.80;2.53;;;12.90;8.90;;;;;;4956506;28;20917;-84
2023/10/14 16:13:28;;;;;;;2.50;2.10;;;12.80;1.00;;;;;;4967181;28;20406;-83
2023/10/14 16:15:55;;;;;;;2.37;2.17;;;12.90;1.00;;;;;;4941199;28;20422;-85
2023/10/14 16:18:20;;;;;;;3.80;2.30;;;14.70;1.00;;;;;;4957079;29;21002;-84
2023/10/14 16:20:49;;;;;;;3.20;2.57;;;12.80;1.00;;;;;;4958718;28;20414;-86
2023/10/14 16:23:16;;;;;;;2.70;2.50;;;12.70;1.00;;;;;;4978090;28;20455;-85
2023/10/14 16:25:41;;;;;;;2.83;2.42;;;12.70;1.00;;;;;;4972765;28;20412;-84
2023/10/14 16:28:08;;;;;;;4.60;2.53;;;12.80;1.00;;;;;;4952180;28;20461;-85
2023/10/14 16:30:37;;;;;;;3.30;2.47;;;12.90;1.00;;;;;;4931848;29;20410;-85
2023/10/14 16:33:04;;;;;;;3.33;2.90;;;12.40;1.00;;;;;;4933914;28;20415;-85